Time;durP1;ratioP1;P1;durP2;ratioP2;P2;SDS_P1;SDS_P2;PMS_P1;PMS_P2;Temp;Humidity;BMP_temperature;BMP_pressure;BME280_temperature;BME280_humidity;BME280_pressure;Samples;Min_cycle;Max_cycle;Signal;HPM_P1;HPM_P2
2020/12/26 00:01:21;;;;;;;2.97;0.60;;;;;;;;;;5091771;28;20056;-56
2020/12/26 00:03:46;;;;;;;2.93;0.90;;;;;;;;;;5071970;28;20029;-58
2020/12/26 00:06:15;;;;;;;2.20;0.90;;;;;;;;;;5085660;28;20038;-58
2020/12/26 00:08:41;;;;;;;4.17;0.70;;;;;;;;;;5085192;28;20182;-56
2020/12/26 00:11:10;;;;;;;5.67;0.77;;;;;;;;;;5085387;28;20534;-57
2020/12/26 00:13:35;;;;;;;2.00;0.53;;;;;;;;;;5089803;28;20479;-57
2020/12/26 00:16:04;;;;;;;3.47;0.83;;;;;;;;;;5083609;28;20096;-56
2020/12/26 00:18:29;;;;;;;1.37;0.40;;;;;;;;;;5086447;28;20055;-57
2020/12/26 00:20:54;;;;;;;2.53;0.70;;;;;;;;;;5094401;28;20443;-54
2020/12/26 00:23:20;;;;;;;0.30;0.20;;;;;;;;;;5088005;28;20057;-57
2020/12/26 00:25:45;;;;;;;4.13;0.90;;;;;;;;;;5095373;28;20107;-56
2020/12/26 00:28:10;;;;;;;3.13;0.80;;;;;;;;;;5094595;28;20024;-57
2020/12/26 00:30:35;;;;;;;10.23;1.70;;;;;;;;;;5091440;28;20047;-56
2020/12/26 00:33:01;;;;;;;3.77;0.57;;;;;;;;;;5096400;28;20040;-52
2020/12/26 00:35:26;;;;;;;3.50;0.80;;;;;;;;;;5094208;28;20352;-56
2020/12/26 00:37:51;;;;;;;4.93;1.17;;;;;;;;;;5095717;28;20474;-55
2020/12/26 00:40:17;;;;;;;1.83;0.37;;;;;;;;;;5092959;28;20095;-57
2020/12/26 00:42:42;;;;;;;3.40;0.50;;;;;;;;;;5096015;28;20059;-57
2020/12/26 00:45:07;;;;;;;3.53;0.50;;;;;;;;;;5093342;28;20055;-55
2020/12/26 00:47:32;;;;;;;4.00;1.00;;;;;;;;;;5088724;28;20123;-55
2020/12/26 00:49:58;;;;;;;2.13;0.40;;;;;;;;;;5089309;28;20020;-57
2020/12/26 00:52:23;;;;;;;4.50;0.97;;;;;;;;;;5095268;28;20123;-55
2020/12/26 00:54:48;;;;;;;1.67;0.87;;;;;;;;;;5094658;28;20027;-54
2020/12/26 00:57:13;;;;;;;4.20;0.93;;;;;;;;;;5095346;28;20113;-57
2020/12/26 00:59:39;;;;;;;4.23;1.40;;;;;;;;;;5092555;28;20027;-58
2020/12/26 01:02:04;;;;;;;2.27;0.70;;;;;;;;;;5095363;28;20020;-55
2020/12/26 01:04:29;;;;;;;7.60;1.33;;;;;;;;;;5094722;28;20027;-56
2020/12/26 01:06:55;;;;;;;2.63;0.80;;;;;;;;;;5095191;28;20463;-55
2020/12/26 01:09:21;;;;;;;4.90;0.80;;;;;;;;;;5092036;28;20020;-56
2020/12/26 01:11:46;;;;;;;3.67;0.93;;;;;;;;;;5095184;28;20103;-54
2020/12/26 01:14:12;;;;;;;5.60;1.67;;;;;;;;;;5092328;28;20023;-57
2020/12/26 01:16:37;;;;;;;5.10;1.10;;;;;;;;;;5094866;28;20023;-56
2020/12/26 01:19:02;;;;;;;3.87;0.97;;;;;;;;;;5092371;28;20040;-57
2020/12/26 01:21:27;;;;;;;3.50;1.10;;;;;;;;;;5094962;28;20024;-56
2020/12/26 01:23:52;;;;;;;5.37;1.40;;;;;;;;;;5094202;28;20441;-55
2020/12/26 01:26:18;;;;;;;3.83;1.87;;;;;;;;;;5092789;28;20028;-58
2020/12/26 01:28:44;;;;;;;5.40;1.30;;;;;;;;;;5084321;28;20020;-56
2020/12/26 01:31:11;;;;;;;4.47;1.73;;;;;;;;;;5073309;28;20028;-55
2020/12/26 01:33:36;;;;;;;7.10;1.30;;;;;;;;;;5091678;28;20478;-55
2020/12/26 01:36:01;;;;;;;3.93;1.20;;;;;;;;;;5094963;28;20027;-57
2020/12/26 01:38:26;;;;;;;4.33;1.40;;;;;;;;;;5091211;28;20047;-56
2020/12/26 01:40:52;;;;;;;3.43;1.60;;;;;;;;;;5095008;28;20027;-54
2020/12/26 01:43:17;;;;;;;5.67;1.60;;;;;;;;;;5094388;28;20048;-58
2020/12/26 01:45:43;;;;;;;3.53;1.30;;;;;;;;;;5090191;28;20111;-56
2020/12/26 01:48:16;;;;;;;7.70;1.97;;;;;;;;;;5092884;28;20526;-56
2020/12/26 01:50:42;;;;;;;3.70;1.70;;;;;;;;;;5091922;28;20008;-56
2020/12/26 01:53:09;;;;;;;7.33;2.90;;;;;;;;;;5093943;28;20016;-56
2020/12/26 01:55:35;;;;;;;5.17;1.60;;;;;;;;;;5094572;28;20023;-54
2020/12/26 01:58:03;;;;;;;4.90;1.57;;;;;;;;;;5094704;28;20032;-57
2020/12/26 02:00:28;;;;;;;6.20;1.70;;;;;;;;;;5090906;28;20024;-58
2020/12/26 02:02:53;;;;;;;5.43;1.53;;;;;;;;;;5093867;28;20399;-55
2020/12/26 02:05:18;;;;;;;4.33;2.43;;;;;;;;;;5094343;28;20020;-56
2020/12/26 02:07:45;;;;;;;5.80;1.90;;;;;;;;;;5093708;28;20027;-55
2020/12/26 02:10:10;;;;;;;3.63;1.90;;;;;;;;;;5090976;28;20020;-56
2020/12/26 02:12:35;;;;;;;5.47;1.97;;;;;;;;;;5093807;28;20471;-56
2020/12/26 02:15:00;;;;;;;4.50;2.20;;;;;;;;;;5093722;28;20107;-58
2020/12/26 02:17:26;;;;;;;4.73;1.97;;;;;;;;;;5093636;28;20016;-56
2020/12/26 02:19:52;;;;;;;5.83;1.80;;;;;;;;;;5090919;28;20027;-55
2020/12/26 02:22:17;;;;;;;1.90;0.97;;;;;;;;;;5093224;28;20072;-53
2020/12/26 02:24:42;;;;;;;4.00;1.80;;;;;;;;;;5093825;28;20165;-55
2020/12/26 02:27:07;;;;;;;3.83;1.53;;;;;;;;;;5093834;28;20386;-53
2020/12/26 02:29:32;;;;;;;2.13;1.03;;;;;;;;;;5089301;28;20047;-53
2020/12/26 02:31:58;;;;;;;5.10;1.77;;;;;;;;;;5092436;28;20031;-56
2020/12/26 02:34:23;;;;;;;4.33;2.00;;;;;;;;;;5093191;28;20039;-57
2020/12/26 02:36:48;;;;;;;4.80;1.70;;;;;;;;;;5093669;28;20087;-57
2020/12/26 02:39:13;;;;;;;3.90;2.10;;;;;;;;;;5089930;28;20046;-57
2020/12/26 02:41:38;;;;;;;3.30;1.77;;;;;;;;;;5093202;28;20016;-56
2020/12/26 02:44:04;;;;;;;3.53;1.80;;;;;;;;;;5093585;28;20470;-54
2020/12/26 02:46:29;;;;;;;3.53;1.63;;;;;;;;;;5093479;28;20012;-55
2020/12/26 02:48:54;;;;;;;7.27;2.17;;;;;;;;;;5089014;28;20375;-56
2020/12/26 02:51:19;;;;;;;3.60;2.10;;;;;;;;;;5092998;28;20485;-57
2020/12/26 02:53:44;;;;;;;8.83;2.53;;;;;;;;;;5085163;28;20027;-57
2020/12/26 02:56:10;;;;;;;4.93;2.40;;;;;;;;;;5073101;28;20482;-56
2020/12/26 02:58:37;;;;;;;6.60;2.60;;;;;;;;;;5080364;28;20469;-57
2020/12/26 03:01:02;;;;;;;4.37;2.07;;;;;;;;;;5093207;28;20104;-56
2020/12/26 03:03:27;;;;;;;3.30;1.47;;;;;;;;;;5092958;28;20518;-55
2020/12/26 03:05:52;;;;;;;4.30;2.03;;;;;;;;;;5092647;28;20023;-52
2020/12/26 03:08:18;;;;;;;4.30;2.30;;;;;;;;;;5090808;28;20016;-58
2020/12/26 03:10:43;;;;;;;3.40;1.70;;;;;;;;;;5089463;28;20020;-56
2020/12/26 03:13:08;;;;;;;4.50;1.57;;;;;;;;;;5093031;28;20023;-56
2020/12/26 03:15:34;;;;;;;3.87;1.83;;;;;;;;;;5093165;28;20023;-56
2020/12/26 03:17:59;;;;;;;4.27;1.73;;;;;;;;;;5092945;28;20359;-55
2020/12/26 03:20:24;;;;;;;3.07;0.80;;;;;;;;;;5089421;28;20505;-55
2020/12/26 03:22:49;;;;;;;2.70;2.00;;;;;;;;;;5090273;28;20020;-55
2020/12/26 03:25:15;;;;;;;4.60;1.80;;;;;;;;;;5086275;28;20043;-55
2020/12/26 03:27:40;;;;;;;5.47;1.57;;;;;;;;;;5092680;28;20026;-58
2020/12/26 03:30:06;;;;;;;1.30;0.67;;;;;;;;;;5087488;28;20059;-54
2020/12/26 03:32:31;;;;;;;3.83;1.90;;;;;;;;;;5092525;28;20012;-55
2020/12/26 03:34:56;;;;;;;4.07;1.90;;;;;;;;;;5092672;28;20482;-56
2020/12/26 03:37:21;;;;;;;6.90;2.10;;;;;;;;;;5092288;28;20028;-56
2020/12/26 03:39:47;;;;;;;6.17;2.90;;;;;;;;;;5089373;28;20382;-57
2020/12/26 03:42:12;;;;;;;6.37;2.87;;;;;;;;;;5092489;28;20028;-55
2020/12/26 03:44:38;;;;;;;4.43;2.40;;;;;;;;;;5092043;28;20519;-57
2020/12/26 03:47:04;;;;;;;6.23;2.53;;;;;;;;;;5092755;28;20062;-57
2020/12/26 03:49:30;;;;;;;4.37;2.00;;;;;;;;;;5088253;28;20031;-57
2020/12/26 03:51:55;;;;;;;5.53;2.80;;;;;;;;;;5092305;28;20035;-54
2020/12/26 03:54:20;;;;;;;5.27;2.53;;;;;;;;;;5091983;28;20107;-53
2020/12/26 03:56:45;;;;;;;4.47;2.80;;;;;;;;;;5092617;28;20031;-53
2020/12/26 03:59:11;;;;;;;3.03;1.60;;;;;;;;;;5088734;28;20047;-55
2020/12/26 04:01:36;;;;;;;5.63;2.17;;;;;;;;;;5092515;28;20379;-57
2020/12/26 04:04:01;;;;;;;4.97;2.37;;;;;;;;;;5092219;28;20028;-57
2020/12/26 04:06:27;;;;;;;4.87;2.63;;;;;;;;;;5092227;28;20023;-56
2020/12/26 04:08:52;;;;;;;2.83;1.23;;;;;;;;;;5087881;28;20016;-55
2020/12/26 04:11:17;;;;;;;5.10;2.23;;;;;;;;;;5091691;28;20020;-56
2020/12/26 04:13:43;;;;;;;2.93;0.97;;;;;;;;;;5072259;28;20020;-56
2020/12/26 04:16:11;;;;;;;3.47;2.10;;;;;;;;;;5072059;28;20019;-57
2020/12/26 04:18:36;;;;;;;2.80;2.07;;;;;;;;;;5072838;28;20024;-54
2020/12/26 04:21:02;;;;;;;4.37;2.10;;;;;;;;;;5091677;28;20024;-52
2020/12/26 04:23:27;;;;;;;4.57;2.30;;;;;;;;;;5077535;28;20108;-53
2020/12/26 04:25:52;;;;;;;4.23;2.43;;;;;;;;;;5081253;28;20036;-54
2020/12/26 04:28:17;;;;;;;3.87;1.87;;;;;;;;;;5090236;28;20136;-57
2020/12/26 04:30:42;;;;;;;4.20;1.57;;;;;;;;;;5089256;28;20043;-55
2020/12/26 04:33:08;;;;;;;3.83;2.10;;;;;;;;;;5091871;28;20099;-54
2020/12/26 04:35:33;;;;;;;4.70;1.50;;;;;;;;;;5092365;28;20108;-57
2020/12/26 04:37:58;;;;;;;3.90;1.83;;;;;;;;;;5091883;28;20050;-56
2020/12/26 04:40:23;;;;;;;6.83;3.40;;;;;;;;;;5088710;28;20483;-55
2020/12/26 04:42:50;;;;;;;6.07;2.97;;;;;;;;;;5091836;28;20020;-55
2020/12/26 04:45:15;;;;;;;8.73;2.73;;;;;;;;;;5091959;28;20012;-55
2020/12/26 04:47:44;;;;;;;5.97;3.50;;;;;;;;;;5091308;28;20471;-55
2020/12/26 04:50:10;;;;;;;8.07;3.67;;;;;;;;;;5087376;28;20091;-52
2020/12/26 04:52:38;;;;;;;8.23;4.20;;;;;;;;;;5091887;28;20096;-56
2020/12/26 04:55:04;;;;;;;11.23;5.37;;;;;;;;;;5073411;28;20020;-56
2020/12/26 04:57:35;;;;;;;3.57;1.63;;;;;;;;;;5071579;28;20063;-55
2020/12/26 05:00:01;;;;;;;2.40;1.10;;;;;;;;;;5076386;28;20458;-57
2020/12/26 05:02:30;;;;;;;7.67;3.20;;;;;;;;;;5094682;28;20513;-57
2020/12/26 05:04:58;;;;;;;2.87;1.70;;;;;;;;;;5095248;28;20028;-56
2020/12/26 05:07:23;;;;;;;7.43;3.70;;;;;;;;;;5094993;28;20028;-57
2020/12/26 05:09:48;;;;;;;6.23;3.70;;;;;;;;;;5086582;28;20019;-55
2020/12/26 05:12:13;;;;;;;7.43;1.73;;;;;;;;;;5095163;28;20016;-55
2020/12/26 05:14:39;;;;;;;4.80;2.23;;;;;;;;;;5095195;28;20016;-54
2020/12/26 05:17:04;;;;;;;5.77;3.70;;;;;;;;;;5095112;28;20097;-56
2020/12/26 05:19:29;;;;;;;6.97;3.87;;;;;;;;;;5092382;28;20019;-57
2020/12/26 05:21:55;;;;;;;3.97;2.77;;;;;;;;;;5091525;28;20722;-56
2020/12/26 05:24:20;;;;;;;8.30;3.67;;;;;;;;;;5091129;28;20047;-57
2020/12/26 05:26:46;;;;;;;5.50;2.93;;;;;;;;;;5094755;28;20088;-55
2020/12/26 05:29:13;;;;;;;6.30;2.10;;;;;;;;;;5087829;28;20013;-56
2020/12/26 05:31:41;;;;;;;4.27;2.40;;;;;;;;;;5094028;28;20095;-53
2020/12/26 05:34:10;;;;;;;6.80;3.77;;;;;;;;;;5094872;28;20024;-55
2020/12/26 05:36:35;;;;;;;7.70;3.77;;;;;;;;;;5095065;28;20019;-56
2020/12/26 05:39:01;;;;;;;5.60;3.00;;;;;;;;;;5091755;28;20162;-57
2020/12/26 05:41:28;;;;;;;4.63;1.80;;;;;;;;;;5094617;28;20032;-56
2020/12/26 05:43:53;;;;;;;0.97;0.77;;;;;;;;;;5094628;28;20096;-57
2020/12/26 05:46:18;;;;;;;6.97;3.47;;;;;;;;;;5094447;28;20519;-54
2020/12/26 05:48:43;;;;;;;7.80;3.50;;;;;;;;;;5091404;28;20013;-56
2020/12/26 05:51:08;;;;;;;6.73;4.03;;;;;;;;;;5092605;28;20378;-56
2020/12/26 05:53:34;;;;;;;5.40;2.70;;;;;;;;;;5094456;28;20020;-55
2020/12/26 05:56:00;;;;;;;5.73;3.03;;;;;;;;;;5094782;28;20458;-53
2020/12/26 05:58:25;;;;;;;5.43;3.10;;;;;;;;;;5091523;28;20055;-58
2020/12/26 06:00:51;;;;;;;4.73;2.60;;;;;;;;;;5093430;28;20020;-57
2020/12/26 06:03:27;;;;;;;6.90;3.20;;;;;;;;;;5094380;28;20028;-56
2020/12/26 06:06:01;;;;;;;6.53;3.17;;;;;;;;;;5094442;28;20016;-54
2020/12/26 06:08:28;;;;;;;5.13;3.10;;;;;;;;;;5091243;28;20413;-56
2020/12/26 06:10:56;;;;;;;5.70;3.03;;;;;;;;;;5086931;28;20031;-56
2020/12/26 06:13:22;;;;;;;5.13;2.97;;;;;;;;;;5093180;28;20012;-54
2020/12/26 06:15:54;;;;;;;6.47;2.70;;;;;;;;;;5092729;28;20390;-57
2020/12/26 06:18:20;;;;;;;10.60;3.40;;;;;;;;;;5092134;28;20055;-57
2020/12/26 06:20:47;;;;;;;6.03;3.00;;;;;;;;;;5093295;28;20378;-54
2020/12/26 06:23:21;;;;;;;4.97;2.97;;;;;;;;;;5093307;28;20016;-57
2020/12/26 06:25:47;;;;;;;5.60;2.60;;;;;;;;;;5079693;28;20050;-57
2020/12/26 06:28:33;;;;;;;6.47;3.57;;;;;;;;;;5092271;28;20455;-56
2020/12/26 06:30:59;;;;;;;4.88;2.35;;;;;;;;;;5079786;28;20039;-56
2020/12/26 06:33:26;;;;;;;5.07;3.07;;;;;;;;;;5073543;28;20407;-56
2020/12/26 06:35:52;;;;;;;5.33;2.30;;;;;;;;;;5073681;28;20103;-56
2020/12/26 06:38:18;;;;;;;10.73;5.33;;;;;;;;;;5091182;28;20099;-55
2020/12/26 06:40:50;;;;;;;14.70;7.33;;;;;;;;;;5092131;28;20031;-56
2020/12/26 06:43:34;;;;;;;6.07;3.83;;;;;;;;;;5093569;28;20059;-57
2020/12/26 06:45:59;;;;;;;7.60;4.57;;;;;;;;;;5093363;28;20527;-56
2020/12/26 06:48:32;;;;;;;6.47;3.10;;;;;;;;;;5090927;28;20205;-57
2020/12/26 06:51:18;;;;;;;9.10;3.50;;;;;;;;;;5091520;28;20016;-53
2020/12/26 06:53:43;;;;;;;5.80;3.13;;;;;;;;;;5086885;28;20493;-54
2020/12/26 06:56:08;;;;;;;6.33;3.13;;;;;;;;;;5093378;28;20028;-56
2020/12/26 06:58:36;;;;;;;6.47;3.40;;;;;;;;;;5090240;28;20019;-56
2020/12/26 07:01:21;;;;;;;4.37;2.07;;;;;;;;;;5090653;28;20106;-56
2020/12/26 07:03:46;;;;;;;9.07;2.97;;;;;;;;;;5091033;28;20089;-57
2020/12/26 07:06:31;;;;;;;5.60;2.83;;;;;;;;;;5092327;28;20028;-57
2020/12/26 07:08:56;;;;;;;4.18;2.58;;;;;;;;;;5086423;28;20031;-57
2020/12/26 07:11:25;;;;;;;7.43;3.47;;;;;;;;;;5092737;28;20379;-57
2020/12/26 07:13:51;;;;;;;6.80;3.10;;;;;;;;;;5092506;28;20027;-55
2020/12/26 07:16:39;;;;;;;5.17;2.80;;;;;;;;;;5092747;28;20474;-57
2020/12/26 07:19:19;;;;;;;4.40;2.40;;;;;;;;;;5090790;28;20051;-57
2020/12/26 07:21:45;;;;;;;6.90;3.37;;;;;;;;;;5092243;28;20016;-57
2020/12/26 07:24:14;;;;;;;6.00;3.10;;;;;;;;;;5092393;28;20047;-56
2020/12/26 07:26:39;;;;;;;5.60;2.57;;;;;;;;;;5091574;28;20489;-56
2020/12/26 07:29:05;;;;;;;6.60;2.87;;;;;;;;;;5089283;28;20047;-57
2020/12/26 07:31:45;;;;;;;7.17;2.30;;;;;;;;;;5092975;28;20097;-56
2020/12/26 07:34:30;;;;;;;6.23;2.20;;;;;;;;;;5073653;28;20021;-53
2020/12/26 07:36:56;;;;;;;5.70;2.38;;;;;;;;;;5080125;28;20028;-55
2020/12/26 07:39:21;;;;;;;4.60;2.23;;;;;;;;;;5088759;28;20394;-54
2020/12/26 07:41:46;;;;;;;4.03;2.60;;;;;;;;;;5092484;28;20020;-57
2020/12/26 07:44:14;;;;;;;4.97;2.30;;;;;;;;;;5092187;28;20498;-56
2020/12/26 07:46:39;;;;;;;6.23;2.10;;;;;;;;;;5090975;28;20075;-54
2020/12/26 07:49:04;;;;;;;3.57;2.00;;;;;;;;;;5082899;28;20019;-53
2020/12/26 07:51:30;;;;;;;4.03;2.00;;;;;;;;;;5085089;28;20012;-56
2020/12/26 07:53:58;;;;;;;7.77;2.10;;;;;;;;;;5088633;28;20081;-56
2020/12/26 07:56:26;;;;;;;4.43;2.10;;;;;;;;;;5085155;28;21406;-57
2020/12/26 07:58:54;;;;;;;4.47;2.33;;;;;;;;;;5079861;28;20107;-54
2020/12/26 08:01:25;;;;;;;3.63;1.80;;;;;;;;;;5078455;28;20378;-56
2020/12/26 08:04:02;;;;;;;2.13;1.50;;;;;;;;;;5082724;28;20119;-56
2020/12/26 08:06:28;;;;;;;4.63;1.60;;;;;;;;;;5081885;28;20016;-57
2020/12/26 08:08:53;;;;;;;4.60;1.73;;;;;;;;;;5080464;28;20019;-57
2020/12/26 08:11:22;;;;;;;2.40;1.63;;;;;;;;;;5088282;28;20020;-58
2020/12/26 08:14:07;;;;;;;2.17;1.57;;;;;;;;;;5080983;28;20029;-56
2020/12/26 08:16:34;;;;;;;3.22;1.65;;;;;;;;;;5078924;28;20063;-56
2020/12/26 08:19:00;;;;;;;4.23;1.57;;;;;;;;;;5087478;28;20016;-56
2020/12/26 08:21:26;;;;;;;2.70;1.57;;;;;;;;;;5090782;28;20026;-55
2020/12/26 08:23:55;;;;;;;1.77;1.53;;;;;;;;;;5091428;28;20469;-55
2020/12/26 08:26:20;;;;;;;2.17;1.43;;;;;;;;;;5088217;28;20501;-56
2020/12/26 08:28:45;;;;;;;4.13;1.83;;;;;;;;;;5088049;28;20012;-55
2020/12/26 08:31:12;;;;;;;2.90;1.37;;;;;;;;;;5091345;28;20033;-56
2020/12/26 08:33:39;;;;;;;3.70;1.37;;;;;;;;;;5091981;28;20493;-56
2020/12/26 08:36:11;;;;;;;2.63;1.70;;;;;;;;;;5090928;28;20457;-56
2020/12/26 08:38:46;;;;;;;5.07;1.50;;;;;;;;;;5091241;28;20617;-56
2020/12/26 08:41:11;;;;;;;4.78;1.80;;;;;;;;;;5093847;28;20028;-56
2020/12/26 08:43:37;;;;;;;2.30;1.10;;;;;;;;;;5094582;28;20442;-55
2020/12/26 08:46:16;;;;;;;3.53;1.63;;;;;;;;;;5093310;28;20037;-53
2020/12/26 08:48:42;;;;;;;3.33;1.57;;;;;;;;;;5089086;28;20016;-53
2020/12/26 08:51:15;;;;;;;2.53;1.60;;;;;;;;;;5093250;28;20016;-56
2020/12/26 08:53:41;;;;;;;3.53;1.30;;;;;;;;;;5094375;28;20104;-57
2020/12/26 08:56:06;;;;;;;2.33;0.97;;;;;;;;;;5094892;28;20074;-54
2020/12/26 08:58:32;;;;;;;3.10;1.10;;;;;;;;;;5092449;28;20023;-57
2020/12/26 09:00:58;;;;;;;5.63;1.20;;;;;;;;;;5095148;28;20065;-57
2020/12/26 09:03:24;;;;;;;2.27;0.77;;;;;;;;;;5094821;28;20024;-57
2020/12/26 09:05:50;;;;;;;3.67;1.00;;;;;;;;;;5094738;28;20028;-55
2020/12/26 09:08:15;;;;;;;1.83;0.80;;;;;;;;;;5091917;28;20023;-55
2020/12/26 09:10:41;;;;;;;3.43;1.07;;;;;;;;;;5093689;28;20016;-56
2020/12/26 09:13:10;;;;;;;4.87;1.00;;;;;;;;;;5094846;28;20016;-55
2020/12/26 09:15:54;;;;;;;2.90;0.80;;;;;;;;;;5095014;28;20044;-55
2020/12/26 09:18:20;;;;;;;1.20;0.40;;;;;;;;;;5092661;28;20016;-55
2020/12/26 09:20:49;;;;;;;3.37;0.90;;;;;;;;;;5089354;28;20032;-56
2020/12/26 09:23:14;;;;;;;1.83;0.47;;;;;;;;;;5093786;28;20111;-56
2020/12/26 09:25:40;;;;;;;3.13;1.37;;;;;;;;;;5094435;28;20445;-56
2020/12/26 09:28:05;;;;;;;1.13;0.50;;;;;;;;;;5094370;28;20016;-56
2020/12/26 09:30:30;;;;;;;0.77;0.30;;;;;;;;;;5088605;28;20112;-53
2020/12/26 09:32:56;;;;;;;2.40;0.93;;;;;;;;;;5084857;28;20020;-56
2020/12/26 09:35:21;;;;;;;1.17;0.57;;;;;;;;;;5094641;28;20020;-55
2020/12/26 09:37:50;;;;;;;2.93;1.10;;;;;;;;;;5092274;28;20020;-54
2020/12/26 09:40:16;;;;;;;0.77;0.30;;;;;;;;;;5091387;28;20482;-53
2020/12/26 09:42:41;;;;;;;3.10;0.87;;;;;;;;;;5093565;28;20020;-56
2020/12/26 09:45:06;;;;;;;2.20;1.07;;;;;;;;;;5094564;28;20032;-54
2020/12/26 09:47:31;;;;;;;0.37;0.20;;;;;;;;;;5092450;28;20035;-54
2020/12/26 09:49:57;;;;;;;0.83;0.50;;;;;;;;;;5085050;28;20020;-52
2020/12/26 09:52:25;;;;;;;0.30;0.20;;;;;;;;;;5092608;28;20020;-55
2020/12/26 09:54:50;;;;;;;0.93;0.40;;;;;;;;;;5093538;28;20069;-51
2020/12/26 09:57:15;;;;;;;0.97;0.70;;;;;;;;;;5093666;28;20388;-53
2020/12/26 09:59:40;;;;;;;3.00;0.80;;;;;;;;;;5091198;28;20027;-54
2020/12/26 10:02:06;;;;;;;2.20;1.03;;;;;;;;;;5091587;28;20034;-54
2020/12/26 10:04:31;;;;;;;2.20;0.70;;;;;;;;;;5092166;28;20020;-56
2020/12/26 10:06:56;;;;;;;3.57;1.27;;;;;;;;;;5093835;28;20020;-53
2020/12/26 10:09:21;;;;;;;2.80;0.90;;;;;;;;;;5090559;28;20016;-56
2020/12/26 10:11:46;;;;;;;3.23;0.70;;;;;;;;;;5093528;28;20019;-56
2020/12/26 10:14:12;;;;;;;2.40;0.80;;;;;;;;;;5093628;28;20027;-57
2020/12/26 10:16:37;;;;;;;2.37;0.70;;;;;;;;;;5095998;28;20023;-56
2020/12/26 10:19:05;;;;;;;1.60;0.80;;;;;;;;;;5108417;28;20382;-56
2020/12/26 10:21:30;;;;;;;3.10;0.90;;;;;;;;;;5093969;28;20031;-55
2020/12/26 10:23:56;;;;;;;2.73;1.53;;;;;;;;;;5091086;28;20060;-55
2020/12/26 10:26:21;;;;;;;2.23;1.00;;;;;;;;;;5084383;28;20383;-56
2020/12/26 10:28:46;;;;;;;3.77;1.20;;;;;;;;;;5089392;28;20016;-53
2020/12/26 10:31:11;;;;;;;2.73;0.87;;;;;;;;;;5093344;28;20057;-55
2020/12/26 10:33:37;;;;;;;1.80;0.97;;;;;;;;;;5083050;28;20066;-55
2020/12/26 10:36:02;;;;;;;1.97;0.87;;;;;;;;;;5073354;28;20028;-57
2020/12/26 10:38:27;;;;;;;2.00;0.70;;;;;;;;;;5084621;28;20023;-50
2020/12/26 10:40:53;;;;;;;1.90;1.50;;;;;;;;;;5090958;28;20486;-55
2020/12/26 10:43:18;;;;;;;2.83;1.10;;;;;;;;;;5093435;28;20043;-56
2020/12/26 10:45:43;;;;;;;3.90;0.60;;;;;;;;;;5092175;28;20115;-54
2020/12/26 10:48:08;;;;;;;1.27;0.60;;;;;;;;;;5092617;28;20485;-55
2020/12/26 10:50:34;;;;;;;4.43;1.03;;;;;;;;;;5087438;28;20087;-56
2020/12/26 10:52:59;;;;;;;2.67;0.97;;;;;;;;;;5092315;28;20016;-52
2020/12/26 10:55:25;;;;;;;3.60;0.53;;;;;;;;;;5092223;28;20511;-53
2020/12/26 10:57:52;;;;;;;2.43;0.53;;;;;;;;;;5092313;28;20035;-54
2020/12/26 11:00:17;;;;;;;3.23;1.33;;;;;;;;;;5073267;28;20536;-54
2020/12/26 11:02:42;;;;;;;2.70;0.93;;;;;;;;;;5091523;28;20024;-56
2020/12/26 11:05:07;;;;;;;2.13;0.97;;;;;;;;;;5101432;28;20031;-56
2020/12/26 11:07:33;;;;;;;3.00;1.30;;;;;;;;;;5096375;28;20028;-55
2020/12/26 11:09:58;;;;;;;2.20;1.00;;;;;;;;;;5088470;28;20028;-54
2020/12/26 11:12:24;;;;;;;2.63;2.27;;;;;;;;;;5092099;28;20016;-53
2020/12/26 11:14:49;;;;;;;3.40;1.40;;;;;;;;;;5091249;28;20028;-54
2020/12/26 11:17:14;;;;;;;2.73;0.93;;;;;;;;;;5092159;28;20101;-56
2020/12/26 11:19:40;;;;;;;2.93;1.40;;;;;;;;;;5088197;28;20455;-55
2020/12/26 11:22:05;;;;;;;3.93;1.30;;;;;;;;;;5091789;28;20058;-57
2020/12/26 11:24:30;;;;;;;4.63;1.37;;;;;;;;;;5089875;28;20403;-55
2020/12/26 11:26:56;;;;;;;0.40;0.40;;;;;;;;;;5087528;28;20020;-58
2020/12/26 11:29:21;;;;;;;3.40;0.93;;;;;;;;;;5078019;28;20357;-56
2020/12/26 11:31:46;;;;;;;1.20;0.60;;;;;;;;;;5080228;28;20027;-55
2020/12/26 11:34:11;;;;;;;4.60;2.20;;;;;;;;;;5092084;28;20020;-58
2020/12/26 11:36:39;;;;;;;4.13;1.70;;;;;;;;;;5085559;28;20081;-56
2020/12/26 11:39:05;;;;;;;3.23;1.10;;;;;;;;;;5087132;28;20023;-53
2020/12/26 11:41:30;;;;;;;3.93;2.03;;;;;;;;;;5091857;28;20032;-54
2020/12/26 11:43:56;;;;;;;4.63;1.43;;;;;;;;;;5092368;28;20062;-55
2020/12/26 11:46:22;;;;;;;4.23;2.00;;;;;;;;;;5091845;28;20085;-55
2020/12/26 11:48:47;;;;;;;4.77;1.87;;;;;;;;;;5088525;28;20031;-55
2020/12/26 11:51:13;;;;;;;3.97;1.90;;;;;;;;;;5076980;28;20016;-56
2020/12/26 11:53:39;;;;;;;3.13;2.13;;;;;;;;;;5071883;28;20016;-55
2020/12/26 11:56:10;;;;;;;2.97;0.90;;;;;;;;;;5072307;28;20074;-57
2020/12/26 11:58:36;;;;;;;3.90;2.00;;;;;;;;;;5085386;28;20028;-57
2020/12/26 12:01:02;;;;;;;6.13;2.93;;;;;;;;;;5091422;28;20074;-57
2020/12/26 12:03:27;;;;;;;3.80;1.03;;;;;;;;;;5091114;28;20028;-54
2020/12/26 12:05:52;;;;;;;3.27;1.50;;;;;;;;;;5091762;28;20038;-57
2020/12/26 12:08:17;;;;;;;4.30;2.23;;;;;;;;;;5088877;28;20031;-55
2020/12/26 12:10:43;;;;;;;2.97;1.57;;;;;;;;;;5090928;28;20014;-54
2020/12/26 12:13:08;;;;;;;4.00;1.97;;;;;;;;;;5095997;28;20028;-55
2020/12/26 12:15:34;;;;;;;5.70;2.43;;;;;;;;;;5087376;28;20107;-55
2020/12/26 12:18:02;;;;;;;1.80;0.53;;;;;;;;;;5077476;28;20024;-56
2020/12/26 12:20:27;;;;;;;2.33;1.67;;;;;;;;;;5092217;28;20390;-56
2020/12/26 12:22:53;;;;;;;5.43;2.83;;;;;;;;;;5095746;28;20024;-56
2020/12/26 12:25:18;;;;;;;4.20;2.43;;;;;;;;;;5091555;28;20040;-55
2020/12/26 12:27:43;;;;;;;4.17;2.10;;;;;;;;;;5075351;28;20467;-55
2020/12/26 12:30:08;;;;;;;3.03;2.33;;;;;;;;;;5081890;28;20503;-56
2020/12/26 12:32:34;;;;;;;7.70;3.43;;;;;;;;;;5085938;28;20495;-56
2020/12/26 12:34:59;;;;;;;4.33;2.50;;;;;;;;;;5091926;28;20110;-57
2020/12/26 12:37:24;;;;;;;3.27;1.97;;;;;;;;;;5095215;28;20043;-56
2020/12/26 12:39:49;;;;;;;2.93;2.10;;;;;;;;;;5083934;28;20028;-56
2020/12/26 12:42:15;;;;;;;6.27;2.87;;;;;;;;;;5075194;28;20111;-57
2020/12/26 12:44:40;;;;;;;2.77;1.47;;;;;;;;;;5084739;28;20389;-56
2020/12/26 12:47:05;;;;;;;4.93;2.30;;;;;;;;;;5089014;28;20032;-55
2020/12/26 12:49:30;;;;;;;3.57;1.80;;;;;;;;;;5088303;28;20020;-56
2020/12/26 12:51:56;;;;;;;5.17;2.73;;;;;;;;;;5095390;28;20031;-54
2020/12/26 12:54:22;;;;;;;7.00;3.60;;;;;;;;;;5095073;28;20017;-57
2020/12/26 12:56:47;;;;;;;3.57;1.10;;;;;;;;;;5095494;28;20020;-57
2020/12/26 12:59:12;;;;;;;7.37;3.37;;;;;;;;;;5086868;28;20020;-57
2020/12/26 13:01:38;;;;;;;3.57;2.30;;;;;;;;;;5078161;28;20032;-56
2020/12/26 13:04:03;;;;;;;5.50;4.00;;;;;;;;;;5086753;28;20020;-57
2020/12/26 13:06:29;;;;;;;9.13;4.13;;;;;;;;;;5094766;28;20100;-53
2020/12/26 13:08:54;;;;;;;5.43;3.10;;;;;;;;;;5091825;28;20111;-55
2020/12/26 13:11:19;;;;;;;8.27;3.93;;;;;;;;;;5094363;28;20020;-58
2020/12/26 13:13:44;;;;;;;3.90;1.50;;;;;;;;;;5092471;28;20149;-54
2020/12/26 13:16:10;;;;;;;4.33;2.97;;;;;;;;;;5094584;28;20073;-57
2020/12/26 13:18:35;;;;;;;8.47;4.03;;;;;;;;;;5091964;28;20333;-58
2020/12/26 13:21:00;;;;;;;9.33;4.47;;;;;;;;;;5087466;28;20039;-56
2020/12/26 13:23:26;;;;;;;5.40;3.63;;;;;;;;;;5080019;28;20113;-53
2020/12/26 13:25:51;;;;;;;6.10;3.17;;;;;;;;;;5093454;28;20103;-55
2020/12/26 13:28:16;;;;;;;5.50;3.30;;;;;;;;;;5087151;28;20024;-54
2020/12/26 13:30:43;;;;;;;7.63;4.07;;;;;;;;;;5092411;28;20103;-56
2020/12/26 13:33:08;;;;;;;6.00;4.43;;;;;;;;;;5093681;28;20020;-56
2020/12/26 13:35:34;;;;;;;8.33;4.93;;;;;;;;;;5090342;28;20433;-56
2020/12/26 13:38:00;;;;;;;6.97;3.60;;;;;;;;;;5093736;28;20024;-57
2020/12/26 13:40:25;;;;;;;6.63;3.60;;;;;;;;;;5079439;28;20477;-56
2020/12/26 13:42:50;;;;;;;5.20;4.50;;;;;;;;;;5091185;28;20069;-55
2020/12/26 13:45:15;;;;;;;6.33;4.30;;;;;;;;;;5094226;28;20028;-55
2020/12/26 13:47:42;;;;;;;7.23;4.70;;;;;;;;;;5094237;28;20073;-55
2020/12/26 13:50:07;;;;;;;5.97;4.47;;;;;;;;;;5091233;28;20502;-58
2020/12/26 13:52:32;;;;;;;7.10;5.77;;;;;;;;;;5094007;28;20017;-55
2020/12/26 13:54:57;;;;;;;5.90;3.83;;;;;;;;;;5094671;28;20016;-54
2020/12/26 13:57:23;;;;;;;7.10;4.43;;;;;;;;;;5093940;28;20091;-55
2020/12/26 13:59:48;;;;;;;8.67;5.20;;;;;;;;;;5090749;28;20370;-55
2020/12/26 14:02:13;;;;;;;6.37;3.37;;;;;;;;;;5094242;28;20066;-57
2020/12/26 14:04:38;;;;;;;4.00;2.53;;;;;;;;;;5094156;28;20045;-53
2020/12/26 14:07:07;;;;;;;6.60;3.80;;;;;;;;;;5093828;28;20024;-58
2020/12/26 14:09:33;;;;;;;7.33;4.33;;;;;;;;;;5090445;28;20016;-57
2020/12/26 14:11:58;;;;;;;5.30;4.30;;;;;;;;;;5093589;28;20024;-55
2020/12/26 14:14:24;;;;;;;7.50;5.40;;;;;;;;;;5093841;28;20407;-56
2020/12/26 14:16:50;;;;;;;7.53;5.53;;;;;;;;;;5094006;28;20021;-56
2020/12/26 14:19:15;;;;;;;9.53;5.83;;;;;;;;;;5083887;28;20126;-56
2020/12/26 14:21:40;;;;;;;9.40;6.07;;;;;;;;;;5073907;28;20451;-57
2020/12/26 14:24:05;;;;;;;9.07;5.60;;;;;;;;;;5092215;28;20044;-55
2020/12/26 14:26:31;;;;;;;7.23;4.67;;;;;;;;;;5092717;28;20522;-57
2020/12/26 14:28:56;;;;;;;7.47;5.43;;;;;;;;;;5075400;28;20020;-55
2020/12/26 14:31:21;;;;;;;10.87;6.00;;;;;;;;;;5093838;28;20450;-57
2020/12/26 14:33:46;;;;;;;10.83;6.80;;;;;;;;;;5091122;28;20035;-54
2020/12/26 14:36:12;;;;;;;10.77;6.43;;;;;;;;;;5093272;28;20030;-55
2020/12/26 14:38:37;;;;;;;5.37;2.87;;;;;;;;;;5090359;28;20020;-55